createdAt,value
2023-03-27T00:02:09.042Z,3.85
2023-03-27T00:04:35.980Z,2.50
2023-03-27T00:07:03.965Z,2.60
2023-03-27T00:09:32.747Z,1.40
2023-03-27T00:12:01.147Z,1.08
2023-03-27T00:14:28.668Z,1.65
2023-03-27T00:16:55.535Z,1.52
2023-03-27T00:19:22.824Z,1.90
2023-03-27T00:21:49.941Z,2.35
2023-03-27T00:24:17.285Z,1.20
2023-03-27T00:26:44.380Z,1.00
2023-03-27T00:29:13.452Z,1.20
2023-03-27T00:31:40.453Z,1.02
2023-03-27T00:34:07.298Z,2.15
2023-03-27T00:36:34.118Z,1.45
2023-03-27T00:39:01.010Z,1.70
2023-03-27T00:41:28.023Z,0.95
2023-03-27T00:43:56.369Z,1.65
2023-03-27T00:46:34.919Z,1.98
2023-03-27T00:49:05.014Z,2.10
2023-03-27T00:51:32.819Z,1.90
2023-03-27T00:54:00.157Z,1.30
2023-03-27T00:56:27.107Z,2.13
2023-03-27T00:59:00.829Z,1.13
2023-03-27T01:01:29.398Z,1.08
2023-03-27T01:04:01.606Z,1.80
2023-03-27T01:06:29.988Z,1.17
2023-03-27T01:08:56.731Z,1.95
2023-03-27T01:11:42.670Z,1.30
2023-03-27T01:14:39.410Z,1.50
2023-03-27T01:17:43.169Z,1.75
2023-03-27T01:20:36.835Z,1.80
2023-03-27T01:23:59.541Z,1.25
2023-03-27T01:26:41.413Z,1.05
2023-03-27T01:29:26.584Z,1.30
2023-03-27T01:32:19.800Z,1.70
2023-03-27T01:35:27.539Z,2.05
2023-03-27T01:38:15.916Z,2.70
2023-03-27T01:41:04.933Z,2.72
2023-03-27T01:44:07.264Z,1.67
2023-03-27T01:47:03.389Z,2.28
2023-03-27T01:49:45.483Z,3.88
2023-03-27T01:52:20.427Z,1.98
2023-03-27T01:54:55.693Z,3.05
2023-03-27T01:57:36.353Z,2.67
2023-03-27T02:00:21.965Z,1.63
2023-03-27T02:03:01.470Z,2.00
2023-03-27T02:05:34.812Z,1.90
2023-03-27T02:08:11.635Z,2.50
2023-03-27T02:10:43.248Z,3.97
2023-03-27T02:13:19.869Z,1.60
2023-03-27T02:15:49.482Z,2.92
2023-03-27T02:18:22.180Z,2.22
2023-03-27T02:20:48.970Z,2.65
2023-03-27T02:23:15.769Z,2.17
2023-03-27T02:25:45.306Z,1.48
2023-03-27T02:28:52.785Z,1.77
2023-03-27T02:31:34.632Z,1.40
2023-03-27T02:34:39.273Z,1.50
2023-03-27T02:37:16.300Z,1.98
2023-03-27T02:40:10.426Z,1.58
2023-03-27T02:42:58.041Z,1.50
2023-03-27T02:45:36.463Z,1.15
2023-03-27T02:48:22.667Z,1.05
2023-03-27T02:51:02.734Z,1.30
2023-03-27T02:53:33.839Z,0.80
2023-03-27T02:56:03.532Z,1.30
2023-03-27T02:58:38.099Z,0.85
2023-03-27T03:01:09.524Z,0.80
2023-03-27T03:03:55.275Z,0.65
2023-03-27T03:06:29.829Z,0.98
2023-03-27T03:09:06.774Z,1.05
2023-03-27T03:11:35.815Z,0.70
2023-03-27T03:14:02.651Z,2.83
2023-03-27T03:16:30.011Z,1.60
2023-03-27T03:18:57.248Z,0.98
2023-03-27T03:21:24.391Z,0.70
2023-03-27T03:23:57.498Z,2.15
2023-03-27T03:26:27.052Z,0.93
2023-03-27T03:29:01.021Z,0.80
2023-03-27T03:31:44.289Z,0.70
2023-03-27T03:34:19.017Z,0.73
2023-03-27T03:36:50.170Z,1.95
2023-03-27T03:39:18.316Z,1.45
2023-03-27T03:41:45.377Z,0.60
2023-03-27T03:44:12.184Z,2.05
2023-03-27T03:46:39.339Z,1.45
2023-03-27T03:49:07.032Z,1.50
2023-03-27T03:51:35.825Z,0.40
2023-03-27T03:54:03.329Z,0.30
2023-03-27T03:56:30.933Z,0.95
2023-03-27T03:58:58.172Z,0.40
2023-03-27T04:01:26.184Z,0.40
2023-03-27T04:03:53.355Z,0.35
2023-03-27T04:06:26.583Z,0.45
2023-03-27T04:08:53.952Z,0.75
2023-03-27T04:11:21.136Z,0.30
2023-03-27T04:13:48.145Z,0.68
2023-03-27T04:16:15.362Z,1.92
2023-03-27T04:18:42.553Z,0.95
2023-03-27T04:21:16.110Z,0.95
2023-03-27T04:23:45.205Z,0.55
2023-03-27T04:26:12.771Z,1.65
2023-03-27T04:28:40.232Z,3.00
2023-03-27T04:31:08.857Z,2.65
2023-03-27T04:33:39.528Z,1.38
2023-03-27T04:36:08.393Z,1.13
2023-03-27T04:38:37.092Z,1.75
2023-03-27T04:41:05.166Z,2.90
2023-03-27T04:43:32.083Z,1.45
2023-03-27T04:45:58.887Z,2.75
2023-03-27T04:48:26.642Z,1.10
2023-03-27T04:50:53.522Z,1.08
2023-03-27T04:53:20.584Z,1.05
2023-03-27T04:55:51.333Z,1.08
2023-03-27T04:58:19.093Z,2.55
2023-03-27T05:00:50.850Z,4.38
2023-03-27T05:03:19.169Z,4.53
2023-03-27T05:05:50.164Z,5.60
2023-03-27T05:08:17.665Z,8.48
2023-03-27T05:10:45.808Z,8.88
2023-03-27T05:13:12.820Z,9.70
2023-03-27T05:15:39.615Z,7.65
2023-03-27T05:18:07.513Z,6.32
2023-03-27T05:20:35.122Z,7.13
2023-03-27T05:23:02.143Z,3.97
2023-03-27T05:25:32.021Z,5.75
2023-03-27T05:28:00.604Z,13.30
2023-03-27T05:30:28.869Z,7.93
2023-03-27T05:32:59.382Z,8.52
2023-03-27T05:35:28.486Z,5.20
2023-03-27T05:37:56.191Z,9.07
2023-03-27T05:40:25.551Z,3.95
2023-03-27T05:42:54.002Z,10.25
2023-03-27T05:45:21.873Z,5.97
2023-03-27T05:48:00.050Z,6.45
2023-03-27T05:50:32.715Z,5.40
2023-03-27T05:53:05.599Z,5.40
2023-03-27T05:55:32.623Z,14.57
2023-03-27T05:57:59.968Z,8.55
2023-03-27T06:00:27.458Z,6.80
2023-03-27T06:02:59.863Z,8.90
2023-03-27T06:08:00.845Z,6.95
2023-03-27T06:10:29.282Z,9.18
2023-03-27T06:13:05.183Z,7.80
2023-03-27T06:15:33.340Z,5.40
2023-03-27T06:18:00.318Z,6.22
2023-03-27T06:20:27.658Z,4.40
2023-03-27T06:22:56.722Z,3.88
2023-03-27T06:25:24.132Z,5.00
2023-03-27T06:27:51.549Z,6.30
2023-03-27T06:30:21.236Z,5.43
2023-03-27T06:32:54.223Z,5.93
2023-03-27T06:35:21.965Z,4.38
2023-03-27T06:37:51.576Z,6.13
2023-03-27T06:40:22.822Z,5.75
2023-03-27T06:43:00.790Z,6.38
2023-03-27T06:45:38.034Z,7.90
2023-03-27T06:48:06.172Z,9.55
2023-03-27T06:50:47.196Z,5.38
2023-03-27T06:55:48.512Z,5.95
2023-03-27T06:58:17.726Z,10.15
2023-03-27T07:00:45.653Z,6.28
2023-03-27T07:03:12.623Z,8.00
2023-03-27T07:05:40.785Z,7.57
2023-03-27T07:08:21.767Z,10.30
2023-03-27T07:10:59.758Z,12.50
2023-03-27T07:13:34.904Z,14.63
2023-03-27T07:16:04.531Z,9.45
2023-03-27T07:18:31.555Z,10.30
2023-03-27T07:20:58.781Z,5.20
2023-03-27T07:23:26.649Z,6.38
2023-03-27T07:25:58.449Z,10.23
2023-03-27T07:28:25.541Z,12.48
2023-03-27T07:30:52.688Z,11.57
2023-03-27T07:33:19.650Z,12.35
2023-03-27T07:35:48.262Z,11.68
2023-03-27T07:38:16.751Z,11.13
2023-03-27T07:40:50.510Z,6.10
2023-03-27T07:43:17.382Z,7.38
2023-03-27T07:45:44.363Z,8.02
2023-03-27T07:48:16.254Z,8.52
2023-03-27T07:50:43.634Z,10.88
2023-03-27T07:53:32.828Z,9.98
2023-03-27T07:55:59.212Z,9.43
2023-03-27T07:58:26.446Z,8.85
2023-03-27T08:00:53.456Z,10.15
2023-03-27T08:03:22.504Z,13.20
2023-03-27T08:05:57.736Z,10.77
2023-03-27T08:08:25.660Z,13.90
2023-03-27T08:10:55.568Z,35.25
2023-03-27T08:13:22.766Z,15.27
2023-03-27T08:15:49.804Z,11.02
2023-03-27T08:18:16.788Z,9.13
2023-03-27T08:20:43.681Z,7.93
2023-03-27T08:23:10.708Z,9.90
2023-03-27T08:25:37.552Z,10.32
2023-03-27T08:28:04.404Z,11.05
2023-03-27T08:30:31.317Z,11.20
2023-03-27T08:33:00.196Z,12.82
2023-03-27T08:35:27.300Z,10.98
2023-03-27T08:37:54.174Z,14.18
2023-03-27T08:40:28.635Z,8.35
2023-03-27T08:43:03.720Z,11.48
2023-03-27T08:45:52.229Z,7.97
2023-03-27T08:48:39.988Z,7.47
2023-03-27T08:51:12.281Z,6.57
2023-03-27T08:53:48.745Z,6.97
2023-03-27T08:56:17.002Z,9.50
2023-03-27T08:58:44.693Z,8.55
2023-03-27T09:01:38.395Z,6.32
2023-03-27T09:04:12.839Z,7.68
2023-03-27T09:06:48.396Z,7.80
2023-03-27T09:09:40.093Z,4.10
2023-03-27T09:12:43.999Z,3.40
2023-03-27T09:15:22.038Z,4.95
2023-03-27T09:17:54.846Z,5.45
2023-03-27T09:20:32.305Z,6.07
2023-03-27T09:23:21.076Z,11.02
2023-03-27T09:25:58.434Z,8.85
2023-03-27T09:28:32.051Z,10.10
2023-03-27T09:31:01.669Z,6.65
2023-03-27T09:33:28.493Z,10.27
2023-03-27T09:35:57.524Z,5.45
2023-03-27T09:38:42.092Z,6.63
2023-03-27T09:41:14.387Z,12.05
2023-03-27T09:43:56.557Z,5.25
2023-03-27T09:49:10.043Z,7.82
2023-03-27T09:51:39.679Z,9.73
2023-03-27T09:54:07.905Z,12.20
2023-03-27T09:56:48.091Z,4.82
2023-03-27T09:59:39.235Z,6.82
2023-03-27T10:02:23.538Z,7.03
2023-03-27T10:05:12.105Z,4.63
2023-03-27T10:07:40.394Z,5.15
2023-03-27T10:10:12.327Z,3.65
2023-03-27T10:15:27.060Z,3.97
2023-03-27T10:17:53.944Z,15.32
2023-03-27T10:20:22.308Z,3.22
2023-03-27T10:22:59.574Z,4.63
2023-03-27T10:25:39.280Z,1.90
2023-03-27T10:28:13.380Z,1.27
2023-03-27T10:30:40.952Z,1.77
2023-03-27T10:33:07.834Z,1.95
2023-03-27T10:35:38.323Z,1.58
2023-03-27T10:38:14.826Z,1.30
2023-03-27T10:40:47.490Z,3.30
2023-03-27T10:43:20.973Z,1.63
2023-03-27T10:45:56.791Z,1.33
2023-03-27T10:48:39.386Z,2.88
2023-03-27T10:51:28.357Z,0.82
2023-03-27T10:54:19.014Z,0.93
2023-03-27T10:56:54.923Z,2.83
2023-03-27T10:59:46.281Z,0.32
2023-03-27T11:02:51.889Z,0.27
2023-03-27T11:05:23.975Z,0.75
2023-03-27T11:08:01.302Z,0.20
2023-03-27T11:10:39.670Z,0.20
2023-03-27T11:13:14.918Z,0.77
2023-03-27T11:15:58.084Z,0.30
2023-03-27T11:18:34.570Z,0.60
2023-03-27T11:21:12.830Z,0.30
2023-03-27T11:24:00.230Z,0.10
2023-03-27T11:26:47.692Z,0.10
2023-03-27T11:29:30.230Z,0.00
2023-03-27T11:32:04.214Z,0.13
2023-03-27T11:34:35.636Z,0.20
2023-03-27T11:37:10.524Z,0.30
2023-03-27T11:40:00.034Z,0.00
2023-03-27T11:42:32.494Z,0.57
2023-03-27T11:45:04.456Z,0.10
2023-03-27T11:51:03.335Z,0.38
2023-03-27T11:53:55.031Z,0.17
2023-03-27T11:56:37.636Z,2.70
2023-03-27T11:59:32.495Z,1.65
2023-03-27T12:02:27.863Z,0.30
2023-03-27T12:05:08.944Z,0.00
2023-03-27T12:07:40.606Z,0.10
2023-03-27T12:10:35.243Z,0.08
2023-03-27T12:13:28.707Z,0.30
2023-03-27T12:16:23.900Z,0.63
2023-03-27T12:19:27.587Z,1.08
2023-03-27T12:22:22.774Z,1.75
2023-03-27T12:25:00.456Z,1.20
2023-03-27T12:27:27.617Z,0.10
2023-03-27T12:30:00.592Z,0.57
2023-03-27T12:33:03.546Z,0.15
2023-03-27T12:35:36.090Z,1.40
2023-03-27T12:38:12.265Z,0.45
2023-03-27T12:40:40.298Z,0.20
2023-03-27T12:43:27.960Z,0.10
2023-03-27T12:46:14.889Z,0.60
2023-03-27T12:48:51.723Z,0.00
2023-03-27T12:51:19.915Z,0.75
2023-03-27T12:53:55.420Z,0.00
2023-03-27T12:56:45.220Z,1.20
2023-03-27T12:59:22.482Z,0.57
2023-03-27T13:02:04.313Z,2.08
2023-03-27T13:05:24.091Z,0.70
2023-03-27T13:08:08.231Z,1.70
2023-03-27T13:10:40.847Z,1.40
2023-03-27T13:13:38.609Z,0.52
2023-03-27T13:16:22.716Z,1.60
2023-03-27T13:18:51.713Z,1.45
2023-03-27T13:21:37.622Z,37.13
2023-03-27T13:24:35.927Z,4.55
2023-03-27T13:27:26.869Z,2.78
2023-03-27T13:29:58.559Z,1.00
2023-03-27T13:32:34.751Z,3.33
2023-03-27T13:35:24.081Z,0.30
2023-03-27T13:37:50.909Z,12.05
2023-03-27T13:40:26.765Z,0.25
2023-03-27T13:43:11.281Z,3.85
2023-03-27T13:45:55.485Z,2.33
2023-03-27T13:48:35.829Z,2.30
2023-03-27T13:51:16.933Z,0.30
2023-03-27T13:53:51.057Z,0.40
2023-03-27T13:56:29.859Z,1.08
2023-03-27T13:59:34.356Z,0.63
2023-03-27T14:02:29.270Z,1.52
2023-03-27T14:05:11.710Z,0.88
2023-03-27T14:07:52.509Z,0.80
2023-03-27T14:11:04.827Z,1.25
2023-03-27T14:13:54.368Z,0.57
2023-03-27T14:16:38.746Z,0.75
2023-03-27T14:19:24.658Z,0.85
2023-03-27T14:22:12.461Z,8.43
2023-03-27T14:24:50.457Z,1.58
2023-03-27T14:27:21.002Z,1.40
2023-03-27T14:29:50.497Z,0.20
2023-03-27T14:32:20.637Z,0.30
2023-03-27T14:34:54.525Z,0.90
2023-03-27T14:37:30.756Z,0.13
2023-03-27T14:40:00.689Z,5.25
2023-03-27T14:42:33.999Z,1.08
2023-03-27T14:45:22.872Z,0.10
2023-03-27T14:48:13.942Z,1.52
2023-03-27T14:50:40.955Z,0.32
2023-03-27T14:53:10.742Z,0.98
2023-03-27T14:55:39.993Z,1.95
2023-03-27T14:58:20.173Z,1.30
2023-03-27T15:00:54.524Z,5.07
2023-03-27T15:03:26.260Z,0.40
2023-03-27T15:08:26.715Z,0.10
2023-03-27T15:10:54.226Z,0.08
2023-03-27T15:13:25.728Z,0.80
2023-03-27T15:15:57.943Z,0.05
2023-03-27T15:18:33.105Z,0.30
2023-03-27T15:21:19.875Z,0.20
2023-03-27T15:23:59.036Z,0.30
2023-03-27T15:26:31.631Z,0.22
2023-03-27T15:29:18.169Z,1.85
2023-03-27T15:31:49.621Z,0.32
2023-03-27T15:34:21.896Z,0.10
2023-03-27T15:36:58.218Z,0.63
2023-03-27T15:39:26.607Z,0.10
2023-03-27T15:42:06.337Z,0.00
2023-03-27T15:44:34.121Z,0.88
2023-03-27T15:47:01.602Z,0.17
2023-03-27T15:49:35.651Z,0.20
2023-03-27T15:52:32.313Z,0.20
2023-03-27T15:55:00.561Z,0.10
2023-03-27T15:57:31.339Z,0.13
2023-03-27T16:00:08.878Z,0.00
2023-03-27T16:02:36.575Z,0.15
2023-03-27T16:05:03.689Z,0.90
2023-03-27T16:07:47.259Z,0.10
2023-03-27T16:10:28.629Z,0.20
2023-03-27T16:12:58.453Z,0.32
2023-03-27T16:15:41.461Z,0.20
2023-03-27T16:18:24.027Z,0.20
2023-03-27T16:20:51.059Z,0.38
2023-03-27T16:23:17.908Z,0.20
2023-03-27T16:25:45.090Z,0.25
2023-03-27T16:28:14.230Z,1.23
2023-03-27T16:30:42.303Z,0.73
2023-03-27T16:33:17.443Z,0.25
2023-03-27T16:35:45.478Z,0.60
2023-03-27T16:38:13.970Z,1.88
2023-03-27T16:40:42.001Z,0.95
2023-03-27T16:43:09.664Z,3.65
2023-03-27T16:45:38.750Z,0.65
2023-03-27T16:48:11.548Z,0.20
2023-03-27T16:50:41.131Z,1.73
2023-03-27T16:53:08.104Z,0.47
2023-03-27T16:55:38.004Z,0.40
2023-03-27T16:58:12.412Z,1.20
2023-03-27T17:00:41.708Z,0.70
2023-03-27T17:03:21.604Z,0.32
2023-03-27T17:05:49.394Z,0.38
2023-03-27T17:08:18.607Z,1.40
2023-03-27T17:10:46.006Z,0.40
2023-03-27T17:13:12.778Z,0.50
2023-03-27T17:15:40.327Z,1.30
2023-03-27T17:18:07.218Z,0.43
2023-03-27T17:20:35.382Z,0.63
2023-03-27T17:23:02.463Z,0.30
2023-03-27T17:25:29.262Z,1.10
2023-03-27T17:27:56.039Z,1.67
2023-03-27T17:30:36.641Z,0.28
2023-03-27T17:33:05.074Z,0.90
2023-03-27T17:35:32.032Z,0.32
2023-03-27T17:37:58.901Z,0.25
2023-03-27T17:40:25.781Z,0.52
2023-03-27T17:42:52.602Z,0.13
2023-03-27T17:45:19.429Z,0.30
2023-03-27T17:47:46.291Z,0.32
2023-03-27T17:50:13.113Z,0.40
2023-03-27T17:52:39.922Z,1.00
2023-03-27T17:55:07.503Z,1.58
2023-03-27T17:57:37.850Z,0.65
2023-03-27T18:00:06.540Z,1.02
2023-03-27T18:02:33.579Z,1.42
2023-03-27T18:05:00.648Z,0.30
2023-03-27T18:07:27.859Z,3.75
2023-03-27T18:09:54.675Z,1.10
2023-03-27T18:12:21.708Z,1.17
2023-03-27T18:14:48.584Z,0.40
2023-03-27T18:17:19.024Z,0.68
2023-03-27T18:19:45.830Z,1.08
2023-03-27T18:22:12.696Z,4.20
2023-03-27T18:24:40.351Z,0.75
2023-03-27T18:27:07.355Z,0.40
2023-03-27T18:29:34.486Z,0.98
2023-03-27T18:32:01.329Z,0.77
2023-03-27T18:34:28.207Z,0.40
2023-03-27T18:36:54.996Z,1.30
2023-03-27T18:39:22.167Z,0.50
2023-03-27T18:41:48.943Z,1.38
2023-03-27T18:44:16.083Z,0.25
2023-03-27T18:46:42.856Z,1.38
2023-03-27T18:49:21.566Z,0.70
2023-03-27T18:51:53.875Z,0.20
2023-03-27T18:54:20.757Z,1.52
2023-03-27T18:56:48.722Z,0.50
2023-03-27T18:59:19.480Z,0.77
2023-03-27T19:01:46.473Z,0.60
2023-03-27T19:04:14.546Z,1.08
2023-03-27T19:06:43.343Z,1.33
2023-03-27T19:09:10.118Z,1.33
2023-03-27T19:11:37.073Z,0.63
2023-03-27T19:14:04.180Z,0.82
2023-03-27T19:16:31.260Z,1.15
2023-03-27T19:18:58.106Z,2.20
2023-03-27T19:21:24.877Z,0.82
2023-03-27T19:23:51.651Z,0.98
2023-03-27T19:26:19.961Z,1.05
2023-03-27T19:28:47.741Z,0.73
2023-03-27T19:31:14.876Z,0.90
2023-03-27T19:33:42.854Z,1.20
2023-03-27T19:36:10.466Z,1.27
2023-03-27T19:38:38.676Z,0.55
2023-03-27T19:41:09.458Z,1.10
2023-03-27T19:43:36.486Z,1.85
2023-03-27T19:46:15.935Z,1.13
2023-03-27T19:48:44.635Z,0.98
2023-03-27T19:51:11.636Z,0.77
2023-03-27T19:53:38.468Z,2.30
2023-03-27T19:56:05.667Z,0.95
2023-03-27T19:58:32.481Z,0.75
2023-03-27T20:00:59.711Z,1.05
2023-03-27T20:03:27.451Z,0.75
2023-03-27T20:06:07.139Z,0.73
2023-03-27T20:08:38.205Z,1.05
2023-03-27T20:11:07.115Z,3.88
2023-03-27T20:13:42.455Z,1.83
2023-03-27T20:16:17.686Z,0.43
2023-03-27T20:18:44.599Z,0.93
2023-03-27T20:21:13.816Z,1.33
2023-03-27T20:23:42.038Z,1.33
2023-03-27T20:26:09.458Z,1.30
2023-03-27T20:28:36.352Z,1.80
2023-03-27T20:31:05.424Z,0.75
2023-03-27T20:33:32.386Z,1.35
2023-03-27T20:35:59.453Z,0.57
2023-03-27T20:38:29.610Z,2.10
2023-03-27T20:40:56.692Z,1.65
2023-03-27T20:43:24.292Z,1.42
2023-03-27T20:45:52.973Z,0.40
2023-03-27T20:48:21.778Z,0.30
2023-03-27T20:50:51.445Z,1.17
2023-03-27T20:53:26.271Z,0.57
2023-03-27T20:56:03.052Z,0.88
2023-03-27T20:58:33.050Z,0.57
2023-03-27T21:01:04.985Z,4.22
2023-03-27T21:03:34.956Z,2.47
2023-03-27T21:06:10.747Z,3.42
2023-03-27T21:08:38.315Z,2.03
2023-03-27T21:11:06.120Z,0.63
2023-03-27T21:13:33.250Z,2.50
2023-03-27T21:16:02.625Z,1.13
2023-03-27T21:18:30.200Z,0.98
2023-03-27T21:20:57.070Z,0.50
2023-03-27T21:23:23.844Z,0.57
2023-03-27T21:25:51.807Z,0.85
2023-03-27T21:28:19.092Z,1.38
2023-03-27T21:30:48.672Z,1.23
2023-03-27T21:33:16.695Z,0.88
2023-03-27T21:35:46.866Z,2.15
2023-03-27T21:38:16.072Z,0.70
2023-03-27T21:40:42.950Z,1.95
2023-03-27T21:43:09.851Z,1.00
2023-03-27T21:45:37.217Z,0.52
2023-03-27T21:48:04.409Z,0.93
2023-03-27T21:50:31.215Z,0.30
2023-03-27T21:52:58.044Z,0.80
2023-03-27T21:55:24.818Z,0.57
2023-03-27T21:57:52.280Z,1.60
2023-03-27T22:00:20.219Z,0.30
2023-03-27T22:02:47.155Z,0.88
2023-03-27T22:05:14.313Z,0.40
2023-03-27T22:07:41.793Z,0.77
2023-03-27T22:10:08.933Z,0.30
2023-03-27T22:12:37.022Z,1.20
2023-03-27T22:15:06.399Z,0.40
2023-03-27T22:17:35.542Z,0.98
2023-03-27T22:20:03.928Z,0.40
2023-03-27T22:22:31.291Z,0.60
2023-03-27T22:24:59.364Z,0.40
2023-03-27T22:27:26.195Z,1.08
2023-03-27T22:29:53.052Z,2.13
2023-03-27T22:32:19.818Z,0.35
2023-03-27T22:34:48.617Z,0.30
2023-03-27T22:37:16.709Z,0.20
2023-03-27T22:39:43.523Z,0.57
2023-03-27T22:42:10.280Z,3.55
2023-03-27T22:44:37.107Z,1.95
2023-03-27T22:47:03.945Z,0.65
2023-03-27T22:49:30.761Z,0.50
2023-03-27T22:51:57.560Z,0.57
2023-03-27T22:54:24.400Z,0.52
2023-03-27T22:56:51.353Z,0.30
2023-03-27T22:59:18.301Z,0.10
2023-03-27T23:01:45.097Z,1.33
2023-03-27T23:04:11.900Z,0.22
2023-03-27T23:06:39.053Z,1.17
2023-03-27T23:09:06.279Z,0.47
2023-03-27T23:11:33.028Z,0.50
2023-03-27T23:13:59.783Z,0.63
2023-03-27T23:16:26.569Z,0.20
2023-03-27T23:18:53.402Z,0.45
2023-03-27T23:21:20.522Z,0.40
2023-03-27T23:23:47.337Z,0.70
2023-03-27T23:26:15.885Z,0.25
2023-03-27T23:28:43.119Z,0.10
2023-03-27T23:31:14.564Z,0.20
2023-03-27T23:33:44.125Z,1.25
2023-03-27T23:36:29.700Z,0.45
2023-03-27T23:38:56.631Z,0.40
2023-03-27T23:41:23.400Z,1.85
2023-03-27T23:43:50.461Z,1.20
2023-03-27T23:46:17.471Z,1.23
2023-03-27T23:48:45.179Z,0.40
2023-03-27T23:51:15.947Z,2.22
2023-03-27T23:53:42.931Z,0.43
2023-03-27T23:56:10.706Z,0.52
2023-03-27T23:58:37.979Z,0.75
